Time;durP1;ratioP1;P1;durP2;ratioP2;P2;SDS_P1;SDS_P2;PMS_P1;PMS_P2;Temp;Humidity;BMP_temperature;BMP_pressure;BME280_temperature;BME280_humidity;BME280_pressure;Samples;Min_cycle;Max_cycle;Signal;HPM_P1;HPM_P2
2021/04/08 00:00:12;;;;;;;9.35;1.80;;;5.20;99.90;;;;;;5067037;28;20064;-70
2021/04/08 00:02:43;;;;;;;7.75;2.40;;;5.20;99.90;;;;;;5064580;28;20029;-70
2021/04/08 00:05:11;;;;;;;9.98;2.30;;;5.30;99.90;;;;;;5068595;28;20512;-70
2021/04/08 00:07:37;;;;;;;9.27;2.63;;;5.30;99.90;;;;;;5063179;28;20469;-70
2021/04/08 00:10:04;;;;;;;9.10;2.60;;;5.40;99.90;;;;;;5073003;28;20063;-70
2021/04/08 00:12:29;;;;;;;10.60;2.72;;;5.50;99.90;;;;;;5072938;28;20024;-70
2021/04/08 00:14:55;;;;;;;7.03;2.22;;;5.50;99.90;;;;;;5067496;28;20028;-70
2021/04/08 00:17:21;;;;;;;12.88;2.78;;;5.50;99.90;;;;;;5065404;28;20025;-70
2021/04/08 00:19:46;;;;;;;11.43;2.53;;;5.50;99.90;;;;;;5064218;28;20028;-70
2021/04/08 00:22:12;;;;;;;14.93;2.90;;;5.30;99.90;;;;;;5065676;28;20050;-70
2021/04/08 00:24:39;;;;;;;12.55;3.55;;;5.30;99.90;;;;;;5068588;28;20508;-70
2021/04/08 00:27:06;;;;;;;12.88;3.60;;;5.40;99.90;;;;;;5063111;28;20037;-70
2021/04/08 00:29:32;;;;;;;11.60;3.25;;;5.30;99.90;;;;;;5064443;28;20025;-70
2021/04/08 00:31:57;;;;;;;9.77;2.50;;;5.20;99.90;;;;;;5068317;28;20508;-70
2021/04/08 00:34:23;;;;;;;9.98;2.42;;;5.20;99.90;;;;;;5068866;28;20036;-70
2021/04/08 00:36:48;;;;;;;12.43;2.88;;;5.20;99.90;;;;;;5069317;28;20434;-71
2021/04/08 00:39:14;;;;;;;11.43;2.40;;;5.30;99.90;;;;;;5063460;28;20424;-70
2021/04/08 00:41:40;;;;;;;17.02;2.60;;;5.30;99.90;;;;;;5062404;28;20036;-70
2021/04/08 00:44:06;;;;;;;7.47;2.15;;;5.30;99.90;;;;;;5063498;28;20485;-70
2021/04/08 00:46:32;;;;;;;8.18;2.20;;;5.40;99.90;;;;;;5063416;28;20048;-70
2021/04/08 00:48:58;;;;;;;16.75;3.17;;;5.40;99.90;;;;;;5067763;28;20137;-69
2021/04/08 00:51:24;;;;;;;13.73;3.17;;;5.40;99.90;;;;;;5070485;28;20086;-70
2021/04/08 00:53:51;;;;;;;13.27;2.40;;;5.40;99.90;;;;;;5065004;28;20591;-70
2021/04/08 00:56:17;;;;;;;6.28;2.28;;;5.40;99.90;;;;;;5066234;28;20484;-70
2021/04/08 00:58:44;;;;;;;13.02;2.67;;;5.50;99.90;;;;;;5056708;28;20027;-70
2021/04/08 01:01:11;;;;;;;8.48;2.00;;;5.60;99.90;;;;;;5067746;28;20031;-70
2021/04/08 01:03:37;;;;;;;9.95;2.42;;;5.60;99.90;;;;;;5062078;28;20493;-70
2021/04/08 01:06:03;;;;;;;13.25;2.92;;;5.60;99.90;;;;;;5065361;28;20049;-70
2021/04/08 01:08:29;;;;;;;7.80;2.70;;;5.60;99.90;;;;;;5065811;28;20028;-71
2021/04/08 01:10:54;;;;;;;8.95;2.63;;;5.60;99.90;;;;;;5068156;28;20104;-70
2021/04/08 01:13:22;;;;;;;8.43;2.78;;;5.60;99.90;;;;;;5063080;28;20673;-70
2021/04/08 01:15:48;;;;;;;6.35;2.88;;;5.60;99.90;;;;;;5066473;28;20028;-69
2021/04/08 01:18:53;;;;;;;12.05;3.50;;;5.50;99.90;;;;;;5064787;28;20029;-70
2021/04/08 01:21:45;;;;;;;10.65;3.33;;;5.60;99.90;;;;;;5057550;28;20036;-69
2021/04/08 01:24:48;;;;;;;6.20;2.58;;;5.50;99.90;;;;;;5067514;28;20033;-69
2021/04/08 01:27:42;;;;;;;10.32;3.00;;;5.50;99.90;;;;;;5069370;28;20036;-69
2021/04/08 01:30:38;;;;;;;12.93;3.20;;;5.60;99.90;;;;;;5060623;28;20028;-69
2021/04/08 01:33:06;;;;;;;16.17;3.83;;;5.50;99.90;;;;;;5069041;28;20032;-69
2021/04/08 01:35:34;;;;;;;11.85;3.22;;;5.50;99.90;;;;;;5062496;28;20552;-69
2021/04/08 01:38:18;;;;;;;9.95;2.65;;;5.40;99.90;;;;;;5065782;28;20047;-69
2021/04/08 01:40:45;;;;;;;6.25;2.50;;;5.40;99.90;;;;;;5061778;28;20025;-69
2021/04/08 01:43:14;;;;;;;8.50;2.50;;;5.30;99.90;;;;;;5071107;28;20024;-70
2021/04/08 01:45:40;;;;;;;8.85;2.70;;;5.30;99.90;;;;;;5059518;28;20025;-69
2021/04/08 01:48:07;;;;;;;14.00;2.95;;;5.30;99.90;;;;;;5068800;28;20028;-69
2021/04/08 01:50:34;;;;;;;11.32;2.78;;;5.20;99.90;;;;;;5070545;28;20028;-70
2021/04/08 01:53:02;;;;;;;13.98;3.17;;;5.20;99.90;;;;;;5062962;28;20112;-69
2021/04/08 01:55:30;;;;;;;10.73;3.25;;;5.20;99.90;;;;;;5060811;28;20536;-69
2021/04/08 01:57:56;;;;;;;12.15;3.30;;;5.20;99.90;;;;;;5061337;28;20033;-70
2021/04/08 02:00:23;;;;;;;13.68;3.78;;;5.20;99.90;;;;;;5070922;28;20020;-69
2021/04/08 02:02:54;;;;;;;12.98;3.60;;;5.20;99.90;;;;;;5071038;28;20037;-69
2021/04/08 02:05:20;;;;;;;7.10;2.50;;;5.20;99.90;;;;;;5066648;28;20040;-69
2021/04/08 02:07:52;;;;;;;11.27;3.30;;;5.20;99.90;;;;;;5065907;28;20051;-69
2021/04/08 02:10:18;;;;;;;8.32;2.88;;;5.20;99.90;;;;;;5069258;28;20099;-70
2021/04/08 02:12:48;;;;;;;11.18;3.25;;;5.20;99.90;;;;;;5071069;28;20040;-69
2021/04/08 02:15:17;;;;;;;11.48;3.85;;;5.20;99.90;;;;;;5068055;28;20017;-70
2021/04/08 02:17:45;;;;;;;12.00;3.33;;;5.20;99.90;;;;;;5066883;28;20035;-70
2021/04/08 02:20:17;;;;;;;10.80;3.58;;;5.20;99.90;;;;;;5065149;28;20024;-70
2021/04/08 02:22:48;;;;;;;9.60;3.45;;;5.10;99.90;;;;;;5068343;28;20028;-69
2021/04/08 02:25:16;;;;;;;12.05;3.53;;;5.20;99.90;;;;;;5068433;28;20515;-69
2021/04/08 02:27:43;;;;;;;9.73;2.97;;;5.10;99.90;;;;;;5074596;28;20508;-69
2021/04/08 02:30:13;;;;;;;14.30;4.20;;;5.10;99.90;;;;;;5077245;28;20052;-70
2021/04/08 02:32:39;;;;;;;10.57;3.78;;;5.10;99.90;;;;;;5076967;28;20035;-70
2021/04/08 02:35:15;;;;;;;14.05;4.40;;;5.10;99.90;;;;;;5066473;28;20079;-69
2021/04/08 02:37:46;;;;;;;10.95;3.72;;;5.00;99.90;;;;;;5066492;28;20056;-70
2021/04/08 02:40:15;;;;;;;12.88;3.85;;;5.00;99.90;;;;;;5066689;28;20032;-70
2021/04/08 02:42:41;;;;;;;19.42;4.53;;;5.10;99.90;;;;;;5073242;28;20020;-70
2021/04/08 02:45:09;;;;;;;8.55;3.30;;;5.00;99.90;;;;;;5069368;28;20041;-70
2021/04/08 02:47:35;;;;;;;9.77;3.33;;;5.00;99.90;;;;;;5063870;28;20020;-69
2021/04/08 02:50:02;;;;;;;12.93;4.35;;;5.00;99.90;;;;;;5069959;28;20021;-70
2021/04/08 02:52:38;;;;;;;9.95;4.00;;;5.00;99.90;;;;;;5064681;28;20056;-70
2021/04/08 02:55:21;;;;;;;11.57;4.38;;;5.00;99.90;;;;;;5063416;28;20033;-69
2021/04/08 02:58:03;;;;;;;11.45;3.58;;;5.00;99.90;;;;;;5059427;28;20029;-70
2021/04/08 03:00:32;;;;;;;7.78;4.10;;;4.90;99.90;;;;;;5066796;28;20058;-70
2021/04/08 03:03:06;;;;;;;14.52;4.82;;;4.90;99.90;;;;;;5064532;28;20047;-70
2021/04/08 03:05:37;;;;;;;12.00;4.20;;;4.90;99.90;;;;;;5065562;28;20028;-70
2021/04/08 03:08:06;;;;;;;15.13;4.75;;;4.80;99.90;;;;;;5065497;28;20030;-70
2021/04/08 03:10:32;;;;;;;15.45;5.05;;;4.90;99.90;;;;;;5065912;28;20539;-70
2021/04/08 03:13:00;;;;;;;21.48;5.97;;;4.90;99.90;;;;;;5066509;28;20392;-70
2021/04/08 03:15:34;;;;;;;12.38;5.65;;;4.90;99.90;;;;;;5071324;28;20104;-70
2021/04/08 03:18:01;;;;;;;14.65;6.03;;;4.80;99.90;;;;;;5069597;28;20030;-70
2021/04/08 03:20:29;;;;;;;15.50;6.53;;;4.90;99.90;;;;;;5068412;28;20087;-70
2021/04/08 03:22:56;;;;;;;13.98;7.13;;;4.90;99.90;;;;;;5065479;28;20025;-70
2021/04/08 03:25:23;;;;;;;21.13;7.53;;;4.90;99.90;;;;;;5066865;28;20428;-70
2021/04/08 03:27:50;;;;;;;23.90;8.05;;;4.90;99.90;;;;;;5069930;28;20021;-69
2021/04/08 03:30:16;;;;;;;18.13;8.07;;;4.90;99.90;;;;;;5064968;28;20021;-70
2021/04/08 03:32:43;;;;;;;13.45;7.15;;;4.90;99.90;;;;;;5066467;28;20035;-71
2021/04/08 03:35:11;;;;;;;16.98;8.50;;;4.90;99.90;;;;;;5070457;28;20231;-70
2021/04/08 03:37:37;;;;;;;15.75;8.07;;;4.90;99.90;;;;;;5064427;28;20096;-70
2021/04/08 03:40:04;;;;;;;17.73;7.72;;;4.90;99.90;;;;;;5072042;28;20028;-70
2021/04/08 03:42:31;;;;;;;17.60;8.25;;;4.90;99.90;;;;;;5061373;28;20048;-70
2021/04/08 03:44:56;;;;;;;17.02;7.43;;;4.90;99.90;;;;;;5070095;28;20123;-70
2021/04/08 03:47:23;;;;;;;16.00;9.40;;;4.80;99.90;;;;;;5066454;28;20484;-70
2021/04/08 03:49:51;;;;;;;27.65;8.60;;;4.80;99.90;;;;;;5064609;28;20028;-70
2021/04/08 03:52:17;;;;;;;19.67;9.02;;;4.80;99.90;;;;;;5067777;28;20024;-70
2021/04/08 03:54:47;;;;;;;21.73;8.02;;;4.80;99.90;;;;;;5070560;28;20032;-69
2021/04/08 03:57:16;;;;;;;15.85;7.30;;;4.80;99.90;;;;;;5068180;28;20036;-69
2021/04/08 03:59:44;;;;;;;14.77;7.55;;;4.80;99.90;;;;;;5071315;28;20042;-70
2021/04/08 04:02:12;;;;;;;24.80;7.50;;;4.80;99.90;;;;;;5064136;28;20021;-70
2021/04/08 04:04:38;;;;;;;21.67;8.32;;;4.80;99.90;;;;;;5065364;28;20036;-70
2021/04/08 04:07:05;;;;;;;15.25;7.90;;;4.80;99.90;;;;;;5066492;28;20017;-69
2021/04/08 04:09:31;;;;;;;16.38;7.35;;;4.80;99.90;;;;;;5064149;28;20055;-69
2021/04/08 04:11:57;;;;;;;14.27;7.78;;;4.80;99.90;;;;;;5068764;28;20461;-69
2021/04/08 04:14:26;;;;;;;13.35;7.03;;;4.80;99.90;;;;;;5071382;28;20147;-69
2021/04/08 04:16:56;;;;;;;13.55;7.53;;;4.80;99.90;;;;;;5068675;28;20365;-69
2021/04/08 04:19:25;;;;;;;20.00;8.20;;;4.80;99.90;;;;;;5067545;28;20028;-69
2021/04/08 04:21:52;;;;;;;14.05;7.47;;;4.80;99.90;;;;;;5060239;28;20025;-69
2021/04/08 04:24:18;;;;;;;18.15;7.45;;;4.90;99.90;;;;;;5063930;28;20032;-69
2021/04/08 04:26:44;;;;;;;11.95;6.53;;;4.90;99.90;;;;;;5067633;28;20078;-69
2021/04/08 04:29:11;;;;;;;12.20;7.13;;;4.90;99.90;;;;;;5064785;28;20029;-69
2021/04/08 04:31:38;;;;;;;17.27;7.25;;;4.90;99.90;;;;;;5071636;28;20546;-69
2021/04/08 04:34:07;;;;;;;13.07;6.90;;;4.90;99.90;;;;;;5063673;28;20050;-69
2021/04/08 04:36:33;;;;;;;16.45;8.13;;;4.90;99.90;;;;;;5064672;28;20020;-69
2021/04/08 04:39:00;;;;;;;27.85;7.47;;;4.90;99.90;;;;;;5068658;28;20112;-69
2021/04/08 04:41:25;;;;;;;14.68;6.38;;;4.90;99.90;;;;;;5067271;28;20028;-69
2021/04/08 04:43:51;;;;;;;12.93;6.93;;;4.80;99.90;;;;;;5060939;28;20086;-69
2021/04/08 04:46:17;;;;;;;11.15;6.13;;;4.80;99.90;;;;;;5068563;28;20420;-69
2021/04/08 04:48:42;;;;;;;12.05;6.82;;;4.90;99.90;;;;;;5061373;28;20025;-69
2021/04/08 04:51:09;;;;;;;15.80;6.55;;;4.90;99.90;;;;;;5063536;28;20567;-69
2021/04/08 04:53:35;;;;;;;14.43;6.10;;;4.80;99.90;;;;;;5070704;28;20032;-69
2021/04/08 04:56:00;;;;;;;20.70;6.65;;;4.80;99.90;;;;;;5061080;28;20029;-70
2021/04/08 04:58:26;;;;;;;14.00;6.72;;;4.90;99.90;;;;;;5064233;28;20039;-69
2021/04/08 05:00:51;;;;;;;14.20;6.43;;;4.80;99.90;;;;;;5058368;28;20040;-69
2021/04/08 05:03:17;;;;;;;13.30;6.32;;;4.90;99.90;;;;;;5065621;28;20025;-69
2021/04/08 05:05:43;;;;;;;15.77;6.45;;;4.90;99.90;;;;;;5066010;28;20025;-69
2021/04/08 05:08:08;;;;;;;12.23;6.13;;;4.90;99.90;;;;;;5058377;28;20086;-69
2021/04/08 05:10:34;;;;;;;16.55;6.50;;;5.00;99.90;;;;;;5064950;28;20128;-69
2021/04/08 05:13:00;;;;;;;17.73;6.35;;;5.00;99.90;;;;;;5067883;28;20468;-69
2021/04/08 05:15:25;;;;;;;18.20;6.97;;;5.00;99.90;;;;;;5066990;28;20078;-69
2021/04/08 05:17:51;;;;;;;17.63;7.13;;;4.90;99.90;;;;;;5071394;28;20074;-69
2021/04/08 05:20:17;;;;;;;10.52;6.15;;;5.00;99.90;;;;;;5073331;28;20029;-69
2021/04/08 05:22:42;;;;;;;12.70;6.70;;;4.90;99.90;;;;;;5070081;28;20059;-69
2021/04/08 05:25:08;;;;;;;14.95;6.47;;;5.00;99.90;;;;;;5066533;28;20499;-70
2021/04/08 05:27:34;;;;;;;13.63;7.07;;;5.00;99.90;;;;;;5072396;28;20079;-69
2021/04/08 05:30:01;;;;;;;14.85;6.75;;;5.00;99.90;;;;;;5068539;28;20462;-69
2021/04/08 05:32:27;;;;;;;13.75;6.22;;;5.00;99.90;;;;;;5065627;28;20119;-69
2021/04/08 05:34:53;;;;;;;12.73;6.20;;;5.00;99.90;;;;;;5072320;28;20100;-69
2021/04/08 05:37:18;;;;;;;17.58;5.93;;;4.90;99.90;;;;;;5068929;28;20170;-69
2021/04/08 05:39:44;;;;;;;18.00;7.07;;;5.00;99.90;;;;;;5070568;28;20099;-69
2021/04/08 05:42:10;;;;;;;11.77;6.70;;;5.10;99.90;;;;;;5073760;28;20024;-69
2021/04/08 05:44:36;;;;;;;18.83;6.50;;;5.10;99.90;;;;;;5072117;28;20033;-69
2021/04/08 05:47:01;;;;;;;10.13;5.28;;;5.10;99.90;;;;;;5067329;28;20029;-69
2021/04/08 05:49:27;;;;;;;11.88;5.55;;;5.10;99.90;;;;;;5074548;28;20029;-69
2021/04/08 05:51:53;;;;;;;13.48;6.05;;;5.10;99.90;;;;;;5066991;28;20035;-70
2021/04/08 05:54:18;;;;;;;13.45;5.50;;;5.10;99.90;;;;;;5069084;28;20441;-70
2021/04/08 05:56:44;;;;;;;16.92;5.90;;;5.10;99.90;;;;;;5065715;28;20102;-70
2021/04/08 05:59:10;;;;;;;9.80;5.82;;;5.00;99.90;;;;;;5070187;28;20051;-69
2021/04/08 06:01:35;;;;;;;14.88;5.97;;;5.00;99.90;;;;;;5070434;28;20053;-70
2021/04/08 06:04:01;;;;;;;11.32;5.75;;;5.10;99.90;;;;;;5066664;28;20097;-69
2021/04/08 06:06:27;;;;;;;15.55;6.30;;;5.10;99.90;;;;;;5069004;28;20033;-69
2021/04/08 06:08:52;;;;;;;11.40;5.80;;;5.20;99.90;;;;;;5054571;28;20036;-69
2021/04/08 06:11:18;;;;;;;13.23;5.88;;;5.10;99.90;;;;;;5067464;28;20103;-69
2021/04/08 06:13:47;;;;;;;11.20;6.18;;;5.10;99.90;;;;;;5066778;28;20107;-69
2021/04/08 06:16:12;;;;;;;11.65;6.00;;;5.10;99.90;;;;;;5067922;28;20059;-69
2021/04/08 06:18:38;;;;;;;13.57;6.22;;;5.20;99.90;;;;;;5070488;28;20430;-69
2021/04/08 06:21:04;;;;;;;16.42;6.18;;;5.10;99.90;;;;;;5072840;28;20055;-69
2021/04/08 06:23:29;;;;;;;12.55;6.30;;;5.20;99.90;;;;;;5067975;28;20033;-69
2021/04/08 06:25:57;;;;;;;10.82;5.63;;;5.10;99.90;;;;;;5065869;28;20524;-70
2021/04/08 06:28:23;;;;;;;15.07;5.57;;;5.10;99.90;;;;;;5068866;28;20116;-69
2021/04/08 06:30:48;;;;;;;11.05;5.28;;;5.10;99.90;;;;;;5070804;28;20096;-69
2021/04/08 06:33:14;;;;;;;14.82;6.25;;;5.20;99.90;;;;;;5071504;28;20028;-70
2021/04/08 06:35:40;;;;;;;8.65;4.82;;;5.10;99.90;;;;;;5065869;28;20025;-70
2021/04/08 06:38:06;;;;;;;10.35;5.50;;;5.30;99.90;;;;;;5070880;28;20032;-70
2021/04/08 06:40:31;;;;;;;10.68;5.00;;;5.30;99.90;;;;;;5075425;28;20559;-69
2021/04/08 06:43:01;;;;;;;6.68;4.80;;;5.20;99.90;;;;;;5071627;28;20361;-70
2021/04/08 06:45:29;;;;;;;11.55;4.97;;;5.20;99.90;;;;;;5068364;28;20380;-69
2021/04/08 06:48:06;;;;;;;10.27;5.63;;;5.20;99.90;;;;;;5076496;28;20020;-69
2021/04/08 06:50:40;;;;;;;8.20;4.32;;;5.30;99.90;;;;;;5074248;28;20547;-69
2021/04/08 06:53:07;;;;;;;9.73;5.25;;;5.30;99.90;;;;;;5066595;28;20032;-69
2021/04/08 06:55:33;;;;;;;11.52;4.90;;;5.20;99.90;;;;;;5074555;28;20021;-69
2021/04/08 06:58:00;;;;;;;19.33;5.93;;;5.30;99.90;;;;;;5053380;28;20028;-70
2021/04/08 07:00:26;;;;;;;12.95;5.50;;;5.40;99.90;;;;;;5061227;28;20016;-70
2021/04/08 07:02:52;;;;;;;9.15;5.07;;;5.50;99.90;;;;;;5065859;28;20029;-69
2021/04/08 07:05:17;;;;;;;11.98;6.53;;;5.50;99.90;;;;;;5063041;28;20024;-70
2021/04/08 07:07:43;;;;;;;10.27;5.18;;;5.50;99.90;;;;;;5057087;28;20108;-70
2021/04/08 07:10:09;;;;;;;49.70;27.70;;;5.50;99.90;;;;;;5066941;28;20423;-69
2021/04/08 07:12:36;;;;;;;29.23;16.27;;;5.60;99.90;;;;;;5067354;28;20526;-70
2021/04/08 07:15:02;;;;;;;18.73;7.07;;;5.60;99.90;;;;;;5063891;28;20060;-70
2021/04/08 07:17:28;;;;;;;14.43;6.72;;;5.70;99.90;;;;;;5068703;28;20468;-70
2021/04/08 07:19:57;;;;;;;11.52;7.03;;;5.70;99.90;;;;;;5064071;28;20033;-70
2021/04/08 07:22:24;;;;;;;14.52;7.43;;;5.80;99.90;;;;;;5061395;28;20012;-71
2021/04/08 07:24:50;;;;;;;13.00;8.13;;;5.70;99.90;;;;;;5058917;28;20048;-70
2021/04/08 07:27:22;;;;;;;15.43;9.07;;;5.80;99.90;;;;;;5072446;28;20385;-70
2021/04/08 07:29:49;;;;;;;15.80;9.37;;;5.90;99.90;;;;;;5067513;28;20402;-70
2021/04/08 07:32:23;;;;;;;19.08;7.78;;;5.90;99.90;;;;;;5064070;28;20044;-70
2021/04/08 07:34:51;;;;;;;16.08;8.02;;;6.00;99.90;;;;;;5070118;28;20119;-70
2021/04/08 07:37:31;;;;;;;20.42;7.57;;;6.00;99.90;;;;;;5067290;28;20048;-70
2021/04/08 07:39:59;;;;;;;17.02;7.40;;;6.10;99.90;;;;;;5068710;28;20436;-70
2021/04/08 07:42:30;;;;;;;14.93;7.35;;;6.20;99.90;;;;;;5067521;28;20508;-70
2021/04/08 07:44:58;;;;;;;17.75;7.40;;;6.20;99.90;;;;;;5066560;28;20075;-70
2021/04/08 07:47:32;;;;;;;13.50;6.85;;;6.20;99.90;;;;;;5064917;28;20016;-70
2021/04/08 07:50:04;;;;;;;13.57;8.18;;;6.30;99.90;;;;;;5070079;28;20036;-70
2021/04/08 07:52:41;;;;;;;13.40;6.77;;;6.30;99.90;;;;;;5074744;28;20527;-70
2021/04/08 07:55:18;;;;;;;12.75;6.45;;;6.40;99.90;;;;;;5064878;28;20046;-70
2021/04/08 07:58:12;;;;;;;15.65;6.78;;;6.50;99.90;;;;;;5075422;28;20024;-70
2021/04/08 08:00:43;;;;;;;11.07;7.38;;;6.60;99.90;;;;;;5066163;28;20511;-70
2021/04/08 08:03:42;;;;;;;13.63;6.43;;;6.60;99.90;;;;;;5074598;28;20043;-71
2021/04/08 08:06:08;;;;;;;13.38;7.22;;;6.70;99.90;;;;;;5075226;28;20111;-70
2021/04/08 08:08:41;;;;;;;13.60;7.40;;;6.70;99.90;;;;;;5071682;28;20108;-70
2021/04/08 08:11:10;;;;;;;14.73;6.68;;;6.80;99.90;;;;;;5068119;28;20028;-70
2021/04/08 08:13:56;;;;;;;13.40;6.68;;;6.90;99.90;;;;;;5073125;28;20031;-70
2021/04/08 08:16:31;;;;;;;10.43;6.53;;;7.00;99.90;;;;;;5066032;28;20511;-70
2021/04/08 08:18:58;;;;;;;13.98;6.63;;;7.10;99.90;;;;;;5060960;28;20044;-70
2021/04/08 08:21:49;;;;;;;15.93;7.15;;;7.20;99.90;;;;;;5065831;28;20028;-70
2021/04/08 08:24:15;;;;;;;13.90;6.00;;;7.20;99.90;;;;;;5059001;28;20555;-70
2021/04/08 08:26:41;;;;;;;9.10;5.28;;;7.30;99.90;;;;;;5058122;28;20030;-71
2021/04/08 08:29:10;;;;;;;13.40;6.22;;;7.30;99.90;;;;;;5062970;28;22615;-71
2021/04/08 08:31:49;;;;;;;7.82;5.30;;;7.40;99.90;;;;;;5063317;28;20020;-70
2021/04/08 08:34:21;;;;;;;8.75;5.60;;;7.50;99.90;;;;;;5064480;28;20032;-70
2021/04/08 08:36:49;;;;;;;10.30;4.57;;;7.50;99.90;;;;;;5066930;28;20078;-71
2021/04/08 08:39:17;;;;;;;10.82;5.13;;;7.50;99.90;;;;;;5068358;28;20131;-71
2021/04/08 08:41:44;;;;;;;8.55;4.97;;;7.60;99.90;;;;;;5062615;28;20388;-70
2021/04/08 08:44:16;;;;;;;9.73;5.55;;;7.70;99.90;;;;;;5072665;28;20032;-70
2021/04/08 08:46:49;;;;;;;7.45;4.35;;;7.70;99.90;;;;;;5068453;28;20105;-70
2021/04/08 08:49:19;;;;;;;12.07;4.50;;;7.80;99.90;;;;;;5067296;28;20020;-70
2021/04/08 08:51:48;;;;;;;8.57;4.43;;;7.90;99.90;;;;;;5060535;28;20028;-70
2021/04/08 08:54:13;;;;;;;5.00;3.53;;;7.90;99.90;;;;;;5071703;28;20426;-70
2021/04/08 08:56:40;;;;;;;8.75;3.97;;;7.90;99.90;;;;;;5070151;28;20028;-70
2021/04/08 08:59:06;;;;;;;8.82;4.40;;;8.10;99.90;;;;;;5064629;28;20489;-70
2021/04/08 09:01:35;;;;;;;6.28;3.70;;;8.20;99.90;;;;;;5065458;28;20044;-71
2021/04/08 09:04:02;;;;;;;6.70;3.80;;;8.30;99.90;;;;;;5068641;28;20657;-70
2021/04/08 09:06:29;;;;;;;5.80;3.45;;;8.40;99.90;;;;;;5069552;28;20419;-70
2021/04/08 09:09:00;;;;;;;10.70;3.92;;;8.40;99.90;;;;;;5068551;28;20032;-71
2021/04/08 09:11:31;;;;;;;6.00;3.90;;;8.50;99.90;;;;;;5076531;28;20024;-70
2021/04/08 09:13:58;;;;;;;8.73;3.83;;;8.70;99.90;;;;;;5074416;28;20021;-71
2021/04/08 09:16:24;;;;;;;9.38;4.75;;;8.80;99.90;;;;;;5072318;28;20031;-70
2021/04/08 09:19:28;;;;;;;5.85;3.88;;;8.90;99.90;;;;;;5072380;28;20037;-70
2021/04/08 09:21:59;;;;;;;9.77;4.28;;;8.80;99.90;;;;;;5075426;28;20035;-70
2021/04/08 09:24:44;;;;;;;5.63;3.80;;;8.90;99.90;;;;;;5072693;28;20036;-70
2021/04/08 09:27:10;;;;;;;7.65;4.47;;;9.10;99.90;;;;;;5078586;28;20039;-71
2021/04/08 09:29:36;;;;;;;10.35;4.65;;;9.10;99.80;;;;;;5067904;28;20020;-70
2021/04/08 09:32:33;;;;;;;7.35;3.90;;;9.10;98.80;;;;;;5072257;28;20029;-70
2021/04/08 09:35:05;;;;;;;8.38;4.70;;;9.00;99.70;;;;;;5086020;28;20427;-70
2021/04/08 09:37:50;;;;;;;10.32;5.18;;;9.00;99.90;;;;;;5067397;28;20059;-71
2021/04/08 09:40:31;;;;;;;8.82;4.38;;;9.00;98.90;;;;;;5059341;28;20024;-70
2021/04/08 09:43:06;;;;;;;9.25;4.97;;;9.30;98.30;;;;;;5071859;28;20028;-70
2021/04/08 09:45:49;;;;;;;9.27;5.07;;;9.20;97.20;;;;;;5072255;28;20025;-70
2021/04/08 09:48:21;;;;;;;12.85;4.88;;;9.10;96.80;;;;;;5070398;28;20021;-70
2021/04/08 09:50:53;;;;;;;10.73;4.95;;;9.10;97.80;;;;;;5078171;28;20515;-70
2021/04/08 09:53:21;;;;;;;5.90;4.63;;;8.90;99.70;;;;;;5066622;28;20491;-71
2021/04/08 09:56:01;;;;;;;9.57;4.93;;;8.90;97.60;;;;;;5069707;28;20025;-70
2021/04/08 09:58:29;;;;;;;11.95;5.22;;;9.00;98.00;;;;;;5056901;28;20035;-71
2021/04/08 10:00:58;;;;;;;10.55;6.22;;;9.10;98.90;;;;;;5059071;28;20792;-70
2021/04/08 10:03:32;;;;;;;10.45;5.85;;;9.20;98.50;;;;;;5070902;28;20035;-70
2021/04/08 10:05:59;;;;;;;6.65;5.88;;;9.20;97.10;;;;;;5068876;28;20481;-70
2021/04/08 10:08:33;;;;;;;8.82;6.13;;;9.20;99.90;;;;;;5071299;28;20041;-70
2021/04/08 10:10:59;;;;;;;8.57;5.88;;;8.90;99.00;;;;;;5071093;28;20563;-71
2021/04/08 10:13:25;;;;;;;9.57;6.05;;;8.90;97.10;;;;;;5064545;28;20031;-70
2021/04/08 10:16:18;;;;;;;10.55;6.30;;;8.90;96.50;;;;;;5066140;28;20111;-70
2021/04/08 10:18:45;;;;;;;10.35;6.35;;;9.00;97.00;;;;;;5067021;28;20044;-71
2021/04/08 10:21:16;;;;;;;9.70;6.50;;;9.10;98.00;;;;;;5071203;28;20031;-71
2021/04/08 10:23:48;;;;;;;6.57;5.57;;;9.20;97.10;;;;;;5068967;28;20025;-70
2021/04/08 10:26:15;;;;;;;9.05;7.20;;;9.20;95.90;;;;;;5062421;28;20041;-70
2021/04/08 10:28:40;;;;;;;8.55;6.50;;;9.20;97.40;;;;;;5071749;28;20473;-70
2021/04/08 10:31:42;;;;;;;10.95;6.72;;;9.30;96.70;;;;;;5067760;28;20029;-70
2021/04/08 10:34:09;;;;;;;12.63;6.60;;;9.20;97.60;;;;;;5053320;28;20593;-70
2021/04/08 10:36:44;;;;;;;11.57;7.53;;;9.20;99.00;;;;;;5066413;28;20354;-70
2021/04/08 10:39:17;;;;;;;10.25;6.65;;;9.30;98.10;;;;;;5066857;28;20040;-70
2021/04/08 10:42:04;;;;;;;10.50;7.40;;;9.30;97.80;;;;;;5073816;28;20461;-69
2021/04/08 10:44:32;;;;;;;9.85;6.68;;;9.20;97.40;;;;;;5066401;28;20041;-70
2021/04/08 10:47:08;;;;;;;12.45;7.13;;;9.20;97.00;;;;;;5064353;28;20027;-70
2021/04/08 10:49:59;;;;;;;11.48;6.57;;;9.20;98.00;;;;;;5065599;28;20029;-70
2021/04/08 10:52:27;;;;;;;11.63;6.53;;;9.20;98.30;;;;;;5063542;28;20031;-70
2021/04/08 10:54:59;;;;;;;13.93;7.38;;;9.30;97.40;;;;;;5048703;28;630165;-71
2021/04/08 10:57:26;;;;;;;12.40;6.93;;;9.40;96.40;;;;;;5062388;28;20138;-70
2021/04/08 10:59:52;;;;;;;15.65;7.82;;;9.40;96.90;;;;;;5070449;28;20030;-71
2021/04/08 11:02:20;;;;;;;10.68;7.90;;;9.40;96.40;;;;;;5074931;28;20028;-70
2021/04/08 11:04:47;;;;;;;7.90;6.70;;;9.40;97.50;;;;;;5070513;28;20029;-70
2021/04/08 11:07:12;;;;;;;9.20;7.07;;;9.50;94.50;;;;;;5066088;28;20036;-70
2021/04/08 11:09:38;;;;;;;14.38;7.00;;;9.50;96.10;;;;;;5069461;28;20102;-70
2021/04/08 11:12:21;;;;;;;11.77;7.88;;;9.50;98.70;;;;;;5071442;28;20380;-70
2021/04/08 11:14:54;;;;;;;12.93;7.72;;;9.80;97.00;;;;;;5072101;28;20472;-70
2021/04/08 11:17:22;;;;;;;9.05;6.90;;;10.00;97.90;;;;;;5072718;28;20025;-70
2021/04/08 11:19:48;;;;;;;10.00;6.35;;;10.10;98.30;;;;;;5070348;28;20039;-69
2021/04/08 11:22:17;;;;;;;10.73;7.25;;;10.00;94.50;;;;;;5078104;28;20415;-70
2021/04/08 11:24:44;;;;;;;10.93;7.18;;;10.10;95.60;;;;;;5071968;28;20044;-69
2021/04/08 11:27:10;;;;;;;9.52;6.95;;;10.00;95.60;;;;;;5069367;28;20108;-70
2021/04/08 11:29:36;;;;;;;9.18;7.72;;;9.90;98.40;;;;;;5073816;28;20189;-70
2021/04/08 11:32:09;;;;;;;9.40;7.32;;;9.90;98.10;;;;;;5066027;28;20020;-70
2021/04/08 11:34:54;;;;;;;10.90;7.65;;;10.00;96.00;;;;;;5070877;28;20032;-69
2021/04/08 11:37:38;;;;;;;11.60;7.45;;;10.10;95.70;;;;;;5063840;28;20047;-69
2021/04/08 11:40:07;;;;;;;11.65;7.57;;;10.20;96.40;;;;;;5069446;28;20499;-70
2021/04/08 11:42:39;;;;;;;8.90;6.57;;;10.40;95.20;;;;;;5073110;28;20025;-69
2021/04/08 11:45:40;;;;;;;9.90;7.38;;;10.50;98.20;;;;;;5066381;28;20051;-69
2021/04/08 11:48:07;;;;;;;9.52;7.65;;;10.50;97.80;;;;;;5070219;28;20032;-70
2021/04/08 11:50:38;;;;;;;14.52;7.63;;;10.50;96.20;;;;;;5067664;28;20021;-70
2021/04/08 11:53:10;;;;;;;11.80;7.00;;;10.40;94.30;;;;;;5058632;28;20028;-70
2021/04/08 11:55:45;;;;;;;11.13;7.20;;;10.50;95.40;;;;;;5067642;28;20064;-70
2021/04/08 11:58:24;;;;;;;11.75;7.35;;;10.50;95.80;;;;;;5063947;28;20028;-69
2021/04/08 12:00:50;;;;;;;10.65;6.80;;;10.60;96.50;;;;;;5063790;28;20580;-69
2021/04/08 12:03:26;;;;;;;10.68;7.38;;;10.80;95.40;;;;;;5070038;28;20043;-70
2021/04/08 12:05:52;;;;;;;13.60;8.10;;;10.70;96.10;;;;;;5065216;28;20465;-69
2021/04/08 12:08:44;;;;;;;12.68;8.07;;;10.80;95.10;;;;;;5065157;28;20025;-70
2021/04/08 12:11:14;;;;;;;10.82;6.50;;;10.60;93.80;;;;;;5060111;28;20108;-69
2021/04/08 12:13:42;;;;;;;12.65;7.70;;;10.40;94.00;;;;;;5064012;28;20039;-69
2021/04/08 12:16:25;;;;;;;11.35;6.60;;;10.40;92.60;;;;;;5071193;28;20103;-69
2021/04/08 12:18:51;;;;;;;;;;;10.30;93.10;;;;;;5071390;28;20028;-69
2021/04/08 12:21:20;;;;;;;11.98;7.70;;;10.40;93.70;;;;;;5066719;28;19908;-69
2021/04/08 12:23:47;;;;;;;12.52;7.45;;;10.70;94.60;;;;;;5061233;28;20036;-69
2021/04/08 12:26:13;;;;;;;10.57;7.20;;;11.00;94.80;;;;;;5072975;28;20024;-69
2021/04/08 12:28:41;;;;;;;9.13;7.75;;;11.20;94.30;;;;;;5067610;28;20050;-68
2021/04/08 12:31:09;;;;;;;11.75;8.00;;;11.20;92.80;;;;;;5064510;28;20016;-68
2021/04/08 12:33:38;;;;;;;10.63;7.50;;;11.30;94.20;;;;;;5062575;28;20036;-69
2021/04/08 12:36:12;;;;;;;10.05;7.80;;;11.40;93.40;;;;;;5062847;28;20111;-69
2021/04/08 12:38:37;;;;;;;12.60;8.60;;;11.50;93.00;;;;;;5068767;28;20034;-68
2021/04/08 12:41:04;;;;;;;11.48;7.40;;;11.50;91.70;;;;;;5062999;28;20397;-68
2021/04/08 12:43:31;;;;;;;11.50;8.20;;;11.60;94.70;;;;;;5065581;28;20032;-68
2021/04/08 12:45:58;;;;;;;12.32;8.27;;;11.70;93.40;;;;;;5064120;28;20024;-68
2021/04/08 12:48:24;;;;;;;15.20;7.82;;;11.80;94.00;;;;;;5067212;28;20027;-68
2021/04/08 12:50:52;;;;;;;15.30;8.40;;;11.70;94.70;;;;;;5061145;28;20051;-68
2021/04/08 12:53:23;;;;;;;11.80;8.27;;;11.90;92.40;;;;;;5060331;28;20056;-68
2021/04/08 12:55:49;;;;;;;13.68;8.23;;;11.90;93.90;;;;;;5069099;28;20500;-68
2021/04/08 12:58:15;;;;;;;14.45;8.55;;;11.70;91.10;;;;;;5062779;28;20119;-68
2021/04/08 13:00:41;;;;;;;11.82;7.38;;;11.80;91.20;;;;;;5065425;28;20092;-68